^^
Meteo Knjazevac Station Historical Data
Daily Summary for November 14, 2021 Units:  Both    English   Metric
Daily Weekly Monthly Yearly Custom
  High: Low: Average:
Temperature: 39 °F /  3.9 °C 34.9 °F /  1.6 °C 37.1 °F /  2.8 °C
Dew Point: 38.8 °F /  3.8 °C 34.2 °F /  1.2 °C 36.7 °F /  2.6 °C
Humidity: 99% 96% 99%
Wind Speed: 2mph /  3.2km/h - 0.3mph /  0.5km/h
Wind Gust: 5mph /  8km/h - -
Wind- - South
Pressure: 30.24 in /  1023.9 hPa 30.23 in /  1023.6 hPa -
Precipitation: 0.00 in /  0 mm    
Historical Graphs
 
 
Tabular Data for November 14, 2021
Time Temperature Dew Point Pressure Wind Wind Speed Wind Gust Humidity Rainfall Rate (Hourly) solar Conditions
00:00 34.9 °F /  1.6 °C 34.4 °F /  1.3 °C 30.24in /  1023.9hPa Calm   2mph /  3.2km/h 98% 0.00in /  0mm 0 W/m2
00:10 35.1 °F /  1.7 °C 34.6 °F /  1.4 °C 30.24in /  1023.9hPa Calm     98% 0.00in /  0mm 0 W/m2
00:20 35.2 °F /  1.8 °C 34.2 °F /  1.2 °C 30.24in /  1023.9hPa Calm     96% 0.00in /  0mm 0 W/m2
00:30 35.4 °F /  1.9 °C 34.9 °F /  1.6 °C 30.24in /  1023.9hPa NE 1mph /  1.6km/h 3mph /  4.8km/h 98% 0.00in /  0mm 0 W/m2
00:40 35.6 °F /  2 °C 35.1 °F /  1.7 °C 30.24in /  1023.9hPa Calm   2mph /  3.2km/h 98% 0.00in /  0mm 0 W/m2
00:50 35.8 °F /  2.1 °C 35.3 °F /  1.8 °C 30.24in /  1023.9hPa NW 1mph /  1.6km/h 2mph /  3.2km/h 98% 0.00in /  0mm 0 W/m2
01:00 35.8 °F /  2.1 °C 35.3 °F /  1.8 °C 30.24in /  1023.9hPa Calm   2mph /  3.2km/h 98% 0.00in /  0mm 0 W/m2
01:10 36 °F /  2.2 °C 35.5 °F /  1.9 °C 30.24in /  1023.9hPa Calm   1mph /  1.6km/h 98% 0.00in /  0mm 0 W/m2
01:20 36.1 °F /  2.3 °C 35.9 °F /  2.2 °C 30.23in /  1023.6hPa Calm   2mph /  3.2km/h 99% 0.00in /  0mm 0 W/m2
01:30 36.3 °F /  2.4 °C 36.1 °F /  2.3 °C 30.24in /  1023.9hPa Calm   2mph /  3.2km/h 99% 0.00in /  0mm 0 W/m2
01:40 36.5 °F /  2.5 °C 36.2 °F /  2.3 °C 30.23in /  1023.6hPa Calm   2mph /  3.2km/h 99% 0.00in /  0mm 0 W/m2
01:50 36.7 °F /  2.6 °C 36.4 °F /  2.4 °C 30.23in /  1023.6hPa NNW 1mph /  1.6km/h 2mph /  3.2km/h 99% 0.00in /  0mm 0 W/m2
02:00 36.9 °F /  2.7 °C 36.6 °F /  2.6 °C 30.23in /  1023.6hPa Calm   2mph /  3.2km/h 99% 0.00in /  0mm 0 W/m2
02:10 37.1 °F /  2.8 °C 36.8 °F /  2.7 °C 30.23in /  1023.6hPa Calm   1mph /  1.6km/h 99% 0.00in /  0mm 0 W/m2
02:20 37.2 °F /  2.9 °C 37 °F /  2.8 °C 30.23in /  1023.6hPa Calm   2mph /  3.2km/h 99% 0.00in /  0mm 0 W/m2
02:30 37.2 °F /  2.9 °C 37 °F /  2.8 °C 30.23in /  1023.6hPa Calm   2mph /  3.2km/h 99% 0.00in /  0mm 0 W/m2
02:40 37.4 °F /  3 °C 37.1 °F /  2.8 °C 30.23in /  1023.6hPa Calm   2mph /  3.2km/h 99% 0.00in /  0mm 0 W/m2
02:50 37.6 °F /  3.1 °C 37.3 °F /  2.9 °C 30.23in /  1023.6hPa Calm   2mph /  3.2km/h 99% 0.00in /  0mm 0 W/m2
03:00 37.6 °F /  3.1 °C 37.4 °F /  3 °C 30.23in /  1023.6hPa Calm   2mph /  3.2km/h 99% 0.00in /  0mm 0 W/m2
03:10 37.8 °F /  3.2 °C 37.5 °F /  3.1 °C 30.23in /  1023.6hPa Calm   2mph /  3.2km/h 99% 0.00in /  0mm 0 W/m2
03:20 37.8 °F /  3.2 °C 37.5 °F /  3.1 °C 30.23in /  1023.6hPa NW 1mph /  1.6km/h 2mph /  3.2km/h 99% 0.00in /  0mm 0 W/m2
03:30 37.9 °F /  3.3 °C 37.7 °F /  3.2 °C 30.23in /  1023.6hPa Calm   1mph /  1.6km/h 99% 0.00in /  0mm 0 W/m2
03:40 38.3 °F /  3.5 °C 38 °F /  3.3 °C 30.23in /  1023.6hPa Calm   5mph /  8km/h 99% 0.00in /  0mm 0 W/m2
03:50 38.5 °F /  3.6 °C 38.2 °F /  3.4 °C 30.23in /  1023.6hPa North 2mph /  3.2km/h 5mph /  8km/h 99% 0.00in /  0mm 0 W/m2
04:00 38.7 °F /  3.7 °C 38.4 °F /  3.6 °C 30.23in /  1023.6hPa NW 1mph /  1.6km/h 4mph /  6.4km/h 99% 0.00in /  0mm 0 W/m2
04:10 38.8 °F /  3.8 °C 38.6 °F /  3.7 °C 30.23in /  1023.6hPa North 1mph /  1.6km/h 2mph /  3.2km/h 99% 0.00in /  0mm 0 W/m2
04:20 39 °F /  3.9 °C 38.8 °F /  3.8 °C 30.23in /  1023.6hPa Calm   2mph /  3.2km/h 99% 0.00in /  0mm 0 W/m2
04:30 39 °F /  3.9 °C 38.8 °F /  3.8 °C 30.23in /  1023.6hPa Calm   2mph /  3.2km/h 99% 0.00in /  0mm 0 W/m2
04:40 39 °F /  3.9 °C 38.8 °F /  3.8 °C 30.23in /  1023.6hPa Calm     99% 0.00in /  0mm 0 W/m2
Knjazevac, Serbia
Compliments of Weather Underground - 2 mb